createdAt,value
2022-09-18T00:01:33.056Z,100573.31
2022-09-18T00:04:06.860Z,100565.13
2022-09-18T00:06:38.292Z,100559.28
2022-09-18T00:09:09.313Z,100566.28
2022-09-18T00:11:39.806Z,100571.00
2022-09-18T00:14:09.875Z,100563.44
2022-09-18T00:16:41.082Z,100567.59
2022-09-18T00:19:09.316Z,100569.25
2022-09-18T00:21:41.586Z,100573.75
2022-09-18T00:24:09.145Z,100564.19
2022-09-18T00:26:36.827Z,100567.72
2022-09-18T00:29:05.420Z,100560.69
2022-09-18T00:31:35.264Z,100577.28
2022-09-18T00:34:07.830Z,100568.44
2022-09-18T00:36:37.519Z,100572.19
2022-09-18T00:39:06.873Z,100568.91
2022-09-18T00:41:37.899Z,100562.34
2022-09-18T00:44:32.901Z,100568.44
2022-09-18T00:47:08.073Z,100565.28
2022-09-18T00:49:38.348Z,100571.28
2022-09-18T00:52:07.255Z,100569.22
2022-09-18T00:54:38.882Z,100567.72
2022-09-18T00:57:11.797Z,100567.84
2022-09-18T00:59:42.970Z,100579.59
2022-09-18T01:02:12.478Z,100576.47
2022-09-18T01:04:40.248Z,100578.34
2022-09-18T01:07:34.187Z,100579.06
2022-09-18T01:10:13.753Z,100576.09
2022-09-18T01:13:21.808Z,100589.97
2022-09-18T01:16:15.453Z,100587.31
2022-09-18T01:19:00.956Z,100585.19
2022-09-18T01:22:00.704Z,100585.88
2022-09-18T01:25:00.307Z,100593.13
2022-09-18T01:27:39.760Z,100592.66
2022-09-18T01:30:09.564Z,100585.88
2022-09-18T01:32:57.184Z,100589.25
2022-09-18T01:35:42.286Z,100589.19
2022-09-18T01:38:18.162Z,100586.19
2022-09-18T01:40:50.570Z,100594.09
2022-09-18T01:43:20.294Z,100589.25
2022-09-18T01:45:52.046Z,100594.50
2022-09-18T01:48:32.871Z,100601.09
2022-09-18T01:51:09.836Z,100601.75
2022-09-18T01:53:48.317Z,100591.50
2022-09-18T01:56:31.438Z,100587.31
2022-09-18T01:59:02.756Z,100590.31
2022-09-18T02:01:42.997Z,100583.69
2022-09-18T02:04:16.586Z,100589.03
2022-09-18T02:06:50.209Z,100601.50
2022-09-18T02:09:17.878Z,100607.47
2022-09-18T02:11:52.774Z,100603.31
2022-09-18T02:14:37.483Z,100598.53
2022-09-18T02:17:36.090Z,100603.53
2022-09-18T02:20:10.995Z,100600.63
2022-09-18T02:22:40.003Z,100608.38
2022-09-18T02:25:11.973Z,100608.31
2022-09-18T02:27:42.556Z,100602.72
2022-09-18T02:30:11.133Z,100603.81
2022-09-18T02:32:40.251Z,100606.50
2022-09-18T02:35:10.277Z,100604.22
2022-09-18T02:37:54.052Z,100607.75
2022-09-18T02:40:42.384Z,100598.38
2022-09-18T02:43:42.629Z,100610.63
2022-09-18T02:46:30.573Z,100608.50
2022-09-18T02:49:28.705Z,100606.78
2022-09-18T02:52:15.616Z,100610.59
2022-09-18T02:54:53.616Z,100606.22
2022-09-18T02:57:28.600Z,100606.81
2022-09-18T02:59:59.457Z,100606.53
2022-09-18T03:02:28.615Z,100608.91
2022-09-18T03:04:56.953Z,100605.63
2022-09-18T03:07:33.332Z,100609.19
2022-09-18T03:10:02.089Z,100607.47
2022-09-18T03:12:30.319Z,100606.28
2022-09-18T03:14:57.985Z,100610.78
2022-09-18T03:17:25.583Z,100604.34
2022-09-18T03:19:54.086Z,100616.41
2022-09-18T03:22:21.694Z,100623.38
2022-09-18T03:24:49.589Z,100621.81
2022-09-18T03:27:18.731Z,100624.25
2022-09-18T03:29:46.730Z,100616.69
2022-09-18T03:32:16.610Z,100622.09
2022-09-18T03:34:47.406Z,100627.59
2022-09-18T03:37:15.974Z,100634.50
2022-09-18T03:39:44.832Z,100631.63
2022-09-18T03:42:15.032Z,100636.63
2022-09-18T03:44:42.801Z,100645.72
2022-09-18T03:47:19.415Z,100639.88
2022-09-18T03:49:48.124Z,100643.13
2022-09-18T03:52:15.671Z,100636.03
2022-09-18T03:54:50.689Z,100644.91
2022-09-18T03:57:46.408Z,100649.72
2022-09-18T04:00:40.036Z,100653.66
2022-09-18T04:03:14.480Z,100652.94
2022-09-18T04:06:16.946Z,100652.47
2022-09-18T04:09:10.720Z,100642.94
2022-09-18T04:11:44.560Z,100648.81
2022-09-18T04:14:14.386Z,100648.53
2022-09-18T04:16:41.839Z,100655.25
2022-09-18T04:19:09.665Z,100657.03
2022-09-18T04:21:40.025Z,100664.06
2022-09-18T04:24:07.491Z,100662.75
2022-09-18T04:26:36.824Z,100665.69
2022-09-18T04:29:05.380Z,100681.16
2022-09-18T04:31:33.564Z,100687.88
2022-09-18T04:34:06.096Z,100680.22
2022-09-18T04:36:34.643Z,100680.41
2022-09-18T04:39:02.111Z,100684.53
2022-09-18T04:41:29.777Z,100683.38
2022-09-18T04:43:58.305Z,100689.31
2022-09-18T04:46:25.877Z,100690.72
2022-09-18T04:48:54.200Z,100690.31
2022-09-18T04:51:26.833Z,100693.06
2022-09-18T04:53:54.592Z,100698.28
2022-09-18T04:56:23.698Z,100692.94
2022-09-18T04:58:53.244Z,100694.19
2022-09-18T05:01:20.734Z,100693.13
2022-09-18T05:03:48.609Z,100697.16
2022-09-18T05:06:24.714Z,100695.53
2022-09-18T05:08:52.332Z,100702.59
2022-09-18T05:11:20.823Z,100699.66
2022-09-18T05:13:49.076Z,100697.25
2022-09-18T05:16:18.008Z,100699.78
2022-09-18T05:18:57.538Z,100718.66
2022-09-18T05:21:25.635Z,100712.66
2022-09-18T05:23:53.356Z,100716.72
2022-09-18T05:26:21.316Z,100725.34
2022-09-18T05:28:50.253Z,100731.53
2022-09-18T05:31:18.332Z,100736.44
2022-09-18T05:33:47.369Z,100743.28
2022-09-18T05:36:15.251Z,100738.28
2022-09-18T05:38:42.796Z,100732.50
2022-09-18T05:41:10.191Z,100728.13
2022-09-18T05:43:39.063Z,100727.34
2022-09-18T05:46:11.209Z,100734.75
2022-09-18T05:48:50.334Z,100741.72
2022-09-18T05:51:20.105Z,100737.66
2022-09-18T05:53:48.643Z,100727.47
2022-09-18T05:56:22.062Z,100726.44
2022-09-18T05:58:49.713Z,100728.53
2022-09-18T06:01:17.917Z,100726.25
2022-09-18T06:04:05.996Z,100740.19
2022-09-18T06:06:56.923Z,100743.41
2022-09-18T06:09:24.404Z,100744.25
2022-09-18T06:11:52.063Z,100748.03
2022-09-18T06:14:19.687Z,100750.19
2022-09-18T06:16:48.525Z,100759.16
2022-09-18T06:19:18.289Z,100751.88
2022-09-18T06:21:49.039Z,100754.34
2022-09-18T06:24:23.069Z,100757.31
2022-09-18T06:27:08.042Z,100756.34
2022-09-18T06:29:42.072Z,100754.66
2022-09-18T06:32:13.015Z,100755.97
2022-09-18T06:34:41.310Z,100754.16
2022-09-18T06:37:13.045Z,100755.22
2022-09-18T06:39:41.146Z,100754.78
2022-09-18T06:42:11.295Z,100750.81
2022-09-18T06:45:02.457Z,100741.09
2022-09-18T06:47:31.229Z,100742.44
2022-09-18T06:49:58.633Z,100740.34
2022-09-18T06:52:28.224Z,100749.28
2022-09-18T06:55:00.982Z,100753.31
2022-09-18T06:57:32.775Z,100760.38
2022-09-18T07:00:00.445Z,100759.31
2022-09-18T07:02:32.266Z,100761.56
2022-09-18T07:05:19.837Z,100760.19
2022-09-18T07:07:48.291Z,100756.00
2022-09-18T07:10:17.435Z,100774.84
2022-09-18T07:12:48.996Z,100777.53
2022-09-18T07:15:20.241Z,100776.75
2022-09-18T07:17:48.224Z,100779.44
2022-09-18T07:20:18.753Z,100775.94
2022-09-18T07:22:58.839Z,100779.66
2022-09-18T07:25:39.169Z,100782.31
2022-09-18T07:28:10.438Z,100786.06
2022-09-18T07:30:45.338Z,100787.56
2022-09-18T07:33:12.985Z,100783.16
2022-09-18T07:35:46.453Z,100779.56
2022-09-18T07:38:15.250Z,100787.06
2022-09-18T07:40:53.076Z,100787.31
2022-09-18T07:43:28.737Z,100785.72
2022-09-18T07:45:56.424Z,100782.78
2022-09-18T07:48:24.341Z,100791.41
2022-09-18T07:50:59.042Z,100796.56
2022-09-18T07:53:26.754Z,100793.69
2022-09-18T07:55:57.660Z,100797.97
2022-09-18T07:58:27.063Z,100805.66
2022-09-18T08:01:20.702Z,100803.94
2022-09-18T08:03:51.433Z,100811.13
2022-09-18T08:06:18.839Z,100809.84
2022-09-18T08:09:03.270Z,100802.09
2022-09-18T08:11:56.350Z,100810.75
2022-09-18T08:14:30.535Z,100811.00
2022-09-18T08:17:14.701Z,100817.69
2022-09-18T08:20:07.147Z,100815.75
2022-09-18T08:22:44.116Z,100812.31
2022-09-18T08:25:13.289Z,100817.63
2022-09-18T08:27:44.536Z,100826.69
2022-09-18T08:30:15.056Z,100821.94
2022-09-18T08:32:44.053Z,100828.88
2022-09-18T08:35:12.903Z,100826.38
2022-09-18T08:37:47.882Z,100822.75
2022-09-18T08:40:53.449Z,100839.59
2022-09-18T08:43:42.751Z,100830.47
2022-09-18T08:46:32.921Z,100831.25
2022-09-18T08:49:22.211Z,100837.09
2022-09-18T08:52:03.654Z,100830.41
2022-09-18T08:54:44.474Z,100848.25
2022-09-18T08:57:25.521Z,100843.06
2022-09-18T09:00:12.979Z,100843.59
2022-09-18T09:02:48.432Z,100835.41
2022-09-18T09:05:33.838Z,100838.31
2022-09-18T09:08:21.674Z,100845.16
2022-09-18T09:11:00.657Z,100851.47
2022-09-18T09:13:59.183Z,100847.59
2022-09-18T09:16:44.944Z,100841.31
2022-09-18T09:19:41.552Z,100845.22
2022-09-18T09:22:19.855Z,100842.91
2022-09-18T09:24:50.692Z,100843.28
2022-09-18T09:27:43.627Z,100843.19
2022-09-18T09:30:46.613Z,100834.63
2022-09-18T09:33:37.756Z,100833.72
2022-09-18T09:36:27.405Z,100829.59
2022-09-18T09:39:08.630Z,100827.06
2022-09-18T09:42:08.018Z,100812.53
2022-09-18T09:44:41.747Z,100817.69
2022-09-18T09:47:15.091Z,100822.19
2022-09-18T09:49:43.526Z,100824.94
2022-09-18T09:52:21.737Z,100820.19
2022-09-18T09:55:12.785Z,100827.03
2022-09-18T09:57:49.556Z,100820.13
2022-09-18T10:00:19.985Z,100814.25
2022-09-18T10:03:15.607Z,100821.81
2022-09-18T10:05:58.843Z,100822.81
2022-09-18T10:08:59.684Z,100811.75
2022-09-18T10:11:27.892Z,100807.28
2022-09-18T10:14:12.881Z,100812.63
2022-09-18T10:16:45.867Z,100806.13
2022-09-18T10:19:15.779Z,100805.22
2022-09-18T10:21:43.748Z,100816.00
2022-09-18T10:24:15.137Z,100805.41
2022-09-18T10:26:48.882Z,100807.63
2022-09-18T10:29:17.555Z,100817.25
2022-09-18T10:31:53.051Z,100807.84
2022-09-18T10:34:41.498Z,100805.59
2022-09-18T10:37:28.297Z,100807.53
2022-09-18T10:40:01.476Z,100811.13
2022-09-18T10:42:34.005Z,100805.16
2022-09-18T10:45:26.341Z,100803.66
2022-09-18T10:48:13.795Z,100819.63
2022-09-18T10:50:56.397Z,100814.66
2022-09-18T10:53:38.763Z,100802.72
2022-09-18T10:56:26.529Z,100807.19
2022-09-18T10:58:57.572Z,100803.66
2022-09-18T11:01:25.937Z,100795.69
2022-09-18T11:04:00.852Z,100805.97
2022-09-18T11:06:34.347Z,100806.00
2022-09-18T11:09:19.988Z,100793.72
2022-09-18T11:11:51.590Z,100795.50
2022-09-18T11:14:27.862Z,100791.88
2022-09-18T11:17:05.910Z,100794.03
2022-09-18T11:19:39.556Z,100790.00
2022-09-18T11:22:44.332Z,100789.44
2022-09-18T11:25:22.555Z,100787.69
2022-09-18T11:27:54.827Z,100782.44
2022-09-18T11:30:33.339Z,100767.97
2022-09-18T11:33:19.340Z,100777.00
2022-09-18T11:35:59.849Z,100769.88
2022-09-18T11:38:31.218Z,100773.13
2022-09-18T11:41:01.715Z,100761.75
2022-09-18T11:43:40.044Z,100764.75
2022-09-18T11:46:24.005Z,100756.31
2022-09-18T11:49:04.482Z,100759.78
2022-09-18T11:52:05.207Z,100757.28
2022-09-18T11:54:57.709Z,100759.03
2022-09-18T11:57:51.023Z,100746.94
2022-09-18T12:00:22.350Z,100738.22
2022-09-18T12:03:20.916Z,100737.41
2022-09-18T12:05:54.486Z,100735.16
2022-09-18T12:08:39.302Z,100734.84
2022-09-18T12:11:33.029Z,100734.34
2022-09-18T12:14:11.348Z,100725.53
2022-09-18T12:16:46.118Z,100729.06
2022-09-18T12:19:23.365Z,100730.53
2022-09-18T12:22:06.601Z,100720.84
2022-09-18T12:24:34.268Z,100709.88
2022-09-18T12:27:28.532Z,100714.19
2022-09-18T12:29:59.220Z,100708.69
2022-09-18T12:32:48.123Z,100703.69
2022-09-18T12:35:15.636Z,100703.41
2022-09-18T12:37:57.516Z,100701.97
2022-09-18T12:40:29.028Z,100702.84
2022-09-18T12:43:14.766Z,100708.47
2022-09-18T12:45:47.940Z,100701.13
2022-09-18T12:48:33.692Z,100696.38
2022-09-18T12:51:03.739Z,100699.88
2022-09-18T12:53:43.449Z,100692.16
2022-09-18T12:56:11.265Z,100696.34
2022-09-18T12:58:57.614Z,100693.03
2022-09-18T13:01:25.222Z,100697.97
2022-09-18T13:03:55.933Z,100687.22
2022-09-18T13:06:43.690Z,100689.53
2022-09-18T13:09:30.244Z,100680.78
2022-09-18T13:12:05.734Z,100681.53
2022-09-18T13:14:47.883Z,100684.44
2022-09-18T13:17:21.175Z,100675.47
2022-09-18T13:19:54.630Z,100676.88
2022-09-18T13:22:25.531Z,100681.81
2022-09-18T13:25:13.020Z,100675.78
2022-09-18T13:27:40.766Z,100665.78
2022-09-18T13:30:17.665Z,100665.16
2022-09-18T13:32:45.187Z,100676.09
2022-09-18T13:35:12.676Z,100672.44
2022-09-18T13:37:41.871Z,100665.47
2022-09-18T13:41:02.095Z,100658.56
2022-09-18T13:43:29.634Z,100654.19
2022-09-18T13:46:00.864Z,100653.84
2022-09-18T13:48:34.400Z,100646.34
2022-09-18T13:51:07.449Z,100649.19
2022-09-18T13:53:41.983Z,100640.34
2022-09-18T13:56:12.364Z,100635.66
2022-09-18T13:58:54.362Z,100635.97
2022-09-18T14:01:40.080Z,100626.28
2022-09-18T14:04:42.252Z,100625.84
2022-09-18T14:07:18.417Z,100628.38
2022-09-18T14:09:58.215Z,100633.22
2022-09-18T14:12:32.130Z,100625.44
2022-09-18T14:15:15.712Z,100629.53
2022-09-18T14:18:14.556Z,100627.66
2022-09-18T14:20:49.404Z,100619.44
2022-09-18T14:23:35.496Z,100610.28
2022-09-18T14:26:09.137Z,100615.75
2022-09-18T14:28:38.011Z,100606.09
2022-09-18T14:31:28.180Z,100607.84
2022-09-18T14:34:12.489Z,100604.13
2022-09-18T14:36:50.615Z,100600.22
2022-09-18T14:39:37.893Z,100609.41
2022-09-18T14:42:30.790Z,100595.81
2022-09-18T14:45:26.104Z,100592.75
2022-09-18T14:47:53.951Z,100595.19
2022-09-18T14:50:31.154Z,100595.19
2022-09-18T14:53:01.311Z,100589.28
2022-09-18T14:55:40.922Z,100581.50
2022-09-18T14:58:15.038Z,100581.94
2022-09-18T15:00:43.981Z,100573.44
2022-09-18T15:03:21.057Z,100580.28
2022-09-18T15:05:52.300Z,100581.25
2022-09-18T15:08:26.477Z,100579.59
2022-09-18T15:10:58.021Z,100571.16
2022-09-18T15:13:26.114Z,100573.69
2022-09-18T15:16:04.372Z,100569.28
2022-09-18T15:18:40.955Z,100563.72
2022-09-18T15:21:28.013Z,100563.69
2022-09-18T15:24:02.301Z,100564.22
2022-09-18T15:26:32.954Z,100569.59
2022-09-18T15:29:02.747Z,100556.91
2022-09-18T15:31:32.696Z,100551.97
2022-09-18T15:34:06.680Z,100548.13
2022-09-18T15:36:37.911Z,100551.09
2022-09-18T15:39:06.503Z,100556.69
2022-09-18T15:41:33.997Z,100549.59
2022-09-18T15:44:01.790Z,100547.47
2022-09-18T15:46:38.374Z,100546.78
2022-09-18T15:49:29.109Z,100545.78
2022-09-18T15:51:56.776Z,100538.41
2022-09-18T15:54:27.144Z,100543.47
2022-09-18T15:56:57.713Z,100537.91
2022-09-18T15:59:28.684Z,100533.31
2022-09-18T16:01:56.964Z,100534.31
2022-09-18T16:04:27.004Z,100530.69
2022-09-18T16:07:00.874Z,100530.72
2022-09-18T16:09:43.934Z,100531.22
2022-09-18T16:12:29.671Z,100527.75
2022-09-18T16:15:04.630Z,100524.34
2022-09-18T16:17:36.953Z,100524.88
2022-09-18T16:20:23.403Z,100518.44
2022-09-18T16:22:53.183Z,100520.50
2022-09-18T16:25:25.288Z,100524.59
2022-09-18T16:27:56.391Z,100524.25
2022-09-18T16:30:26.111Z,100530.38
2022-09-18T16:33:28.018Z,100523.94
2022-09-18T16:36:07.904Z,100522.06
2022-09-18T16:38:35.543Z,100529.19
2022-09-18T16:41:03.186Z,100526.47
2022-09-18T16:43:30.742Z,100531.38
2022-09-18T16:45:58.214Z,100526.13
2022-09-18T16:48:25.922Z,100537.03
2022-09-18T16:50:53.557Z,100532.31
2022-09-18T16:53:21.204Z,100529.75
2022-09-18T16:55:53.390Z,100529.41
2022-09-18T16:58:22.834Z,100528.88
2022-09-18T17:00:50.536Z,100532.81
2022-09-18T17:03:18.481Z,100520.22
2022-09-18T17:05:46.575Z,100531.81
2022-09-18T17:08:14.124Z,100527.19
2022-09-18T17:10:45.017Z,100532.94
2022-09-18T17:13:13.636Z,100529.34
2022-09-18T17:15:41.208Z,100533.75
2022-09-18T17:18:08.804Z,100520.31
2022-09-18T17:20:36.432Z,100521.41
2022-09-18T17:23:03.888Z,100520.75
2022-09-18T17:25:31.538Z,100523.97
2022-09-18T17:27:59.196Z,100519.13
2022-09-18T17:30:26.922Z,100523.03
2022-09-18T17:32:54.507Z,100515.19
2022-09-18T17:35:22.266Z,100518.31
2022-09-18T17:37:51.692Z,100515.50
2022-09-18T17:40:19.513Z,100513.25
2022-09-18T17:42:47.268Z,100514.66
2022-09-18T17:45:15.053Z,100513.13
2022-09-18T17:47:42.708Z,100514.69
2022-09-18T17:50:10.579Z,100519.97
2022-09-18T17:52:38.305Z,100521.13
2022-09-18T17:55:06.398Z,100522.13
2022-09-18T17:57:35.382Z,100522.06
2022-09-18T18:00:04.436Z,100527.63
2022-09-18T18:02:40.536Z,100526.53
2022-09-18T18:05:08.466Z,100539.47
2022-09-18T18:07:35.945Z,100540.53
2022-09-18T18:10:03.821Z,100547.06
2022-09-18T18:12:31.339Z,100548.47
2022-09-18T18:14:58.911Z,100547.63
2022-09-18T18:17:26.261Z,100549.53
2022-09-18T18:19:53.771Z,100555.88
2022-09-18T18:22:21.510Z,100547.63
2022-09-18T18:24:49.651Z,100553.94
2022-09-18T18:27:19.995Z,100551.81
2022-09-18T18:29:53.703Z,100555.75
2022-09-18T18:32:21.568Z,100551.97
2022-09-18T18:34:49.937Z,100557.81
2022-09-18T18:37:17.434Z,100558.44
2022-09-18T18:39:44.972Z,100560.84
2022-09-18T18:42:12.416Z,100561.94
2022-09-18T18:44:41.832Z,100573.00
2022-09-18T18:47:09.343Z,100571.47
2022-09-18T18:49:37.873Z,100566.53
2022-09-18T18:52:05.423Z,100562.88
2022-09-18T18:54:32.855Z,100553.81
2022-09-18T18:57:01.003Z,100565.75
2022-09-18T18:59:28.589Z,100558.88
2022-09-18T19:01:57.671Z,100565.88
2022-09-18T19:04:26.091Z,100567.28
2022-09-18T19:06:53.954Z,100572.59
2022-09-18T19:09:24.438Z,100568.91
2022-09-18T19:11:52.856Z,100559.47
2022-09-18T19:14:34.326Z,100565.28
2022-09-18T19:17:01.760Z,100560.19
2022-09-18T19:19:29.439Z,100559.22
2022-09-18T19:22:00.230Z,100555.34
2022-09-18T19:24:29.989Z,100566.25
2022-09-18T19:26:58.935Z,100577.25
2022-09-18T19:29:27.396Z,100571.94
2022-09-18T19:31:54.905Z,100574.00
2022-09-18T19:34:22.505Z,100573.69
2022-09-18T19:36:51.836Z,100581.13
2022-09-18T19:39:21.965Z,100576.81
2022-09-18T19:41:55.446Z,100568.06
2022-09-18T19:44:26.632Z,100568.16
2022-09-18T19:46:57.498Z,100567.28
2022-09-18T19:49:33.685Z,100563.47
2022-09-18T19:52:02.079Z,100559.16
2022-09-18T19:54:31.070Z,100563.34
2022-09-18T19:56:59.191Z,100564.34
2022-09-18T19:59:26.839Z,100564.06
2022-09-18T20:01:55.202Z,100571.88
2022-09-18T20:04:22.924Z,100562.34
2022-09-18T20:06:50.497Z,100571.53
2022-09-18T20:09:18.125Z,100568.13
2022-09-18T20:11:48.229Z,100566.56
2022-09-18T20:14:16.185Z,100576.53
2022-09-18T20:16:43.545Z,100572.97
2022-09-18T20:19:11.030Z,100571.41
2022-09-18T20:21:38.472Z,100572.66
2022-09-18T20:24:06.222Z,100574.69
2022-09-18T20:26:33.707Z,100567.06
2022-09-18T20:29:01.215Z,100568.34
2022-09-18T20:31:29.081Z,100572.28
2022-09-18T20:33:57.922Z,100570.69
2022-09-18T20:36:26.560Z,100573.00
2022-09-18T20:39:01.876Z,100567.84
2022-09-18T20:41:30.071Z,100566.38
2022-09-18T20:44:02.963Z,100566.94
2022-09-18T20:46:35.147Z,100558.16
2022-09-18T20:49:06.381Z,100564.03
2022-09-18T20:51:35.901Z,100561.31
2022-09-18T20:54:07.016Z,100560.91
2022-09-18T20:56:41.436Z,100553.28
2022-09-18T20:59:13.385Z,100555.47
2022-09-18T21:01:43.834Z,100560.19
2022-09-18T21:04:17.353Z,100558.13
2022-09-18T21:06:55.217Z,100549.59
2022-09-18T21:09:28.934Z,100548.38
2022-09-18T21:11:56.972Z,100548.72
2022-09-18T21:14:25.590Z,100553.84
2022-09-18T21:16:53.421Z,100546.81
2022-09-18T21:19:20.849Z,100534.44
2022-09-18T21:21:48.815Z,100536.56
2022-09-18T21:24:17.414Z,100534.72
2022-09-18T21:26:47.907Z,100532.47
2022-09-18T21:29:20.652Z,100545.66
2022-09-18T21:31:50.553Z,100534.72
2022-09-18T21:34:27.155Z,100525.19
2022-09-18T21:36:57.761Z,100541.88
2022-09-18T21:39:28.210Z,100532.28
2022-09-18T21:41:57.923Z,100526.34
2022-09-18T21:44:29.590Z,100522.41
2022-09-18T21:47:02.123Z,100516.53
2022-09-18T21:49:30.460Z,100520.84
2022-09-18T21:52:06.446Z,100517.00
2022-09-18T21:54:34.335Z,100507.31
2022-09-18T21:57:02.187Z,100513.84
2022-09-18T21:59:31.465Z,100505.63
2022-09-18T22:02:00.669Z,100513.56
2022-09-18T22:04:30.082Z,100504.75
2022-09-18T22:07:00.003Z,100504.63
2022-09-18T22:09:30.369Z,100507.19
2022-09-18T22:11:58.711Z,100511.78
2022-09-18T22:14:32.298Z,100521.94
2022-09-18T22:17:02.157Z,100510.78
2022-09-18T22:19:30.523Z,100507.50
2022-09-18T22:21:58.209Z,100502.59
2022-09-18T22:24:27.469Z,100500.22
2022-09-18T22:27:00.345Z,100511.41
2022-09-18T22:29:30.768Z,100508.94
2022-09-18T22:31:59.532Z,100508.38
2022-09-18T22:34:30.298Z,100510.44
2022-09-18T22:36:59.199Z,100501.47
2022-09-18T22:39:27.185Z,100485.25
2022-09-18T22:41:54.965Z,100486.44
2022-09-18T22:44:22.859Z,100490.09
2022-09-18T22:46:55.069Z,100483.63
2022-09-18T22:49:23.561Z,100483.31
2022-09-18T22:51:52.131Z,100489.13
2022-09-18T22:54:24.820Z,100479.44
2022-09-18T22:56:52.831Z,100481.50
2022-09-18T22:59:23.949Z,100476.19
2022-09-18T23:01:56.418Z,100488.34
2022-09-18T23:04:28.035Z,100483.72
2022-09-18T23:06:57.126Z,100470.25
2022-09-18T23:09:25.259Z,100482.72
2022-09-18T23:11:53.510Z,100475.16
2022-09-18T23:14:25.923Z,100488.78
2022-09-18T23:16:54.180Z,100475.38
2022-09-18T23:19:25.944Z,100470.25
2022-09-18T23:21:54.252Z,100461.28
2022-09-18T23:24:22.672Z,100470.38
2022-09-18T23:26:51.750Z,100479.56
2022-09-18T23:29:21.365Z,100478.16
2022-09-18T23:31:52.945Z,100478.41
2022-09-18T23:34:23.703Z,100482.78
2022-09-18T23:36:54.288Z,100480.44
2022-09-18T23:39:28.705Z,100483.72
2022-09-18T23:41:58.862Z,100487.38
2022-09-18T23:44:28.652Z,100479.94
2022-09-18T23:46:56.419Z,100463.53
2022-09-18T23:49:24.271Z,100471.38
2022-09-18T23:51:54.725Z,100475.56
2022-09-18T23:54:25.093Z,100476.03
2022-09-18T23:56:53.432Z,100477.66
2022-09-18T23:59:23.324Z,100466.59
